createdAt,value
2019-05-19T00:00:30.780Z,7.90
2019-05-19T00:01:30.776Z,7.80
2019-05-19T00:02:30.760Z,8.60
2019-05-19T00:03:30.762Z,8.00
2019-05-19T00:04:30.737Z,7.60
2019-05-19T00:05:30.775Z,8.20
2019-05-19T00:06:30.719Z,7.70
2019-05-19T00:07:30.710Z,7.40
2019-05-19T00:08:30.700Z,8.20
2019-05-19T00:09:30.697Z,8.60
2019-05-19T00:10:30.708Z,8.70
2019-05-19T00:11:30.668Z,9.20
2019-05-19T00:12:30.667Z,8.90
2019-05-19T00:13:30.637Z,8.80
2019-05-19T00:14:30.650Z,8.60
2019-05-19T00:15:30.636Z,8.90
2019-05-19T00:16:30.628Z,10.10
2019-05-19T00:17:30.612Z,8.90
2019-05-19T00:18:30.587Z,9.30
2019-05-19T00:19:30.579Z,9.30
2019-05-19T00:20:30.610Z,9.10
2019-05-19T00:21:30.548Z,9.10
2019-05-19T00:22:30.549Z,9.40
2019-05-19T00:23:30.545Z,9.30
2019-05-19T00:24:30.543Z,8.60
2019-05-19T00:25:30.554Z,10.10
2019-05-19T00:26:30.504Z,10.30
2019-05-19T00:27:30.500Z,10.80
2019-05-19T00:28:30.472Z,10.60
2019-05-19T00:29:30.476Z,11.00
2019-05-19T00:30:30.478Z,11.00
2019-05-19T00:31:30.449Z,11.10
2019-05-19T00:32:30.429Z,11.80
2019-05-19T00:33:30.430Z,11.50
2019-05-19T00:34:30.410Z,10.30
2019-05-19T00:35:30.433Z,11.50
2019-05-19T00:36:30.388Z,11.80
2019-05-19T00:37:30.374Z,11.30
2019-05-19T00:38:30.368Z,11.10
2019-05-19T00:39:30.358Z,11.10
2019-05-19T00:40:30.363Z,11.40
2019-05-19T00:41:30.344Z,11.00
2019-05-19T00:42:30.318Z,10.10
2019-05-19T00:43:30.313Z,9.70
2019-05-19T00:44:30.306Z,9.60
2019-05-19T00:45:30.313Z,9.40
2019-05-19T00:46:30.307Z,9.60
2019-05-19T00:47:30.275Z,9.00
2019-05-19T00:48:30.259Z,8.40
2019-05-19T00:49:40.947Z,8.50
2019-05-19T00:50:31.254Z,9.50
2019-05-19T00:51:30.241Z,8.70
2019-05-19T00:52:30.219Z,8.20
2019-05-19T00:53:30.221Z,9.00
2019-05-19T00:54:30.185Z,9.40
2019-05-19T00:55:30.179Z,9.10
2019-05-19T00:56:30.189Z,9.00
2019-05-19T00:57:30.158Z,9.20
2019-05-19T00:58:30.146Z,8.50
2019-05-19T00:59:30.140Z,8.90
2019-05-19T01:00:30.127Z,9.10
2019-05-19T01:01:30.143Z,8.60
2019-05-19T01:02:30.129Z,9.30
2019-05-19T01:03:30.094Z,9.50
2019-05-19T01:04:30.083Z,8.80
2019-05-19T01:05:30.092Z,9.80
2019-05-19T01:06:30.118Z,9.00
2019-05-19T01:07:30.086Z,8.80
2019-05-19T01:08:30.038Z,8.20
2019-05-19T01:09:30.041Z,8.60
2019-05-19T01:10:30.028Z,8.20
2019-05-19T01:11:30.015Z,7.70
2019-05-19T01:12:29.992Z,8.50
2019-05-19T01:13:29.979Z,8.90
2019-05-19T01:14:29.980Z,9.20
2019-05-19T01:15:30.022Z,9.40
2019-05-19T01:16:29.967Z,9.50
2019-05-19T01:17:29.936Z,9.40
2019-05-19T01:18:29.931Z,9.00
2019-05-19T01:19:29.961Z,9.90
2019-05-19T01:20:29.899Z,8.90
2019-05-19T01:21:29.930Z,9.10
2019-05-19T01:22:29.965Z,9.10
2019-05-19T01:23:29.878Z,8.70
2019-05-19T01:24:29.860Z,8.70
2019-05-19T01:25:29.860Z,8.70
2019-05-19T01:26:29.836Z,8.80
2019-05-19T01:27:29.842Z,9.10
2019-05-19T01:28:29.819Z,9.60
2019-05-19T01:29:29.799Z,9.40
2019-05-19T01:30:29.788Z,8.90
2019-05-19T01:31:29.808Z,9.20
2019-05-19T01:32:29.784Z,8.70
2019-05-19T01:33:29.797Z,9.00
2019-05-19T01:34:29.758Z,9.30
2019-05-19T01:35:29.757Z,9.30
2019-05-19T01:36:29.743Z,9.80
2019-05-19T01:37:29.755Z,9.30
2019-05-19T01:38:29.704Z,10.10
2019-05-19T01:39:29.733Z,11.40
2019-05-19T01:40:29.693Z,11.40
2019-05-19T01:41:29.702Z,11.50
2019-05-19T01:42:29.673Z,10.90
2019-05-19T01:43:29.658Z,10.40
2019-05-19T01:44:29.641Z,10.60
2019-05-19T01:45:29.642Z,10.30
2019-05-19T01:46:29.624Z,9.90
2019-05-19T01:47:29.633Z,9.70
2019-05-19T01:48:29.595Z,10.70
2019-05-19T01:49:29.584Z,10.90
2019-05-19T01:50:29.569Z,11.60
2019-05-19T01:51:29.580Z,11.00
2019-05-19T01:52:29.574Z,12.30
2019-05-19T01:53:29.557Z,11.80
2019-05-19T01:54:29.527Z,11.90
2019-05-19T01:55:29.526Z,12.70
2019-05-19T01:56:29.504Z,11.60
2019-05-19T01:57:29.513Z,12.40
2019-05-19T01:58:29.488Z,11.40
2019-05-19T01:59:29.472Z,12.40
2019-05-19T02:00:29.462Z,12.10
2019-05-19T02:01:29.456Z,12.30
2019-05-19T02:02:29.483Z,12.90
2019-05-19T02:03:29.449Z,12.90
2019-05-19T02:04:29.430Z,11.70
2019-05-19T02:05:29.435Z,11.80
2019-05-19T02:06:29.413Z,12.00
2019-05-19T02:07:29.387Z,12.10
2019-05-19T02:08:29.406Z,12.50
2019-05-19T02:09:29.391Z,12.20
2019-05-19T02:10:29.360Z,12.30
2019-05-19T02:11:29.346Z,12.60
2019-05-19T02:12:29.352Z,13.10
2019-05-19T02:13:29.338Z,13.40
2019-05-19T02:14:29.321Z,12.60
2019-05-19T02:15:29.302Z,11.90
2019-05-19T02:16:29.296Z,12.50
2019-05-19T02:17:29.278Z,12.00
2019-05-19T02:18:29.284Z,11.50
2019-05-19T02:19:29.280Z,12.10
2019-05-19T02:20:33.161Z,11.60
2019-05-19T02:21:29.239Z,12.20
2019-05-19T02:22:29.237Z,12.10
2019-05-19T02:23:29.237Z,12.50
2019-05-19T02:24:29.201Z,12.10
2019-05-19T02:25:29.187Z,13.00
2019-05-19T02:26:29.182Z,13.70
2019-05-19T02:27:29.186Z,13.40
2019-05-19T02:28:29.174Z,13.20
2019-05-19T02:29:29.150Z,13.10
2019-05-19T02:30:29.153Z,13.90
2019-05-19T02:31:29.158Z,14.30
2019-05-19T02:32:29.117Z,14.30
2019-05-19T02:33:29.112Z,13.30
2019-05-19T02:34:29.091Z,13.30
2019-05-19T02:35:29.078Z,13.40
2019-05-19T02:36:29.071Z,13.60
2019-05-19T02:37:29.060Z,14.30
2019-05-19T02:38:29.070Z,13.10
2019-05-19T02:39:29.050Z,13.30
2019-05-19T02:40:29.023Z,12.90
2019-05-19T02:41:29.031Z,12.90
2019-05-19T02:42:29.015Z,13.50
2019-05-19T02:43:28.988Z,14.50
2019-05-19T02:44:29.006Z,12.80
2019-05-19T02:45:28.982Z,14.00
2019-05-19T02:46:28.964Z,14.60
2019-05-19T02:47:28.947Z,14.30
2019-05-19T02:48:28.943Z,14.20
2019-05-19T02:49:28.960Z,14.00
2019-05-19T02:50:28.912Z,13.30
2019-05-19T02:51:28.912Z,13.40
2019-05-19T02:52:28.905Z,13.90
2019-05-19T02:53:28.894Z,13.20
2019-05-19T02:54:28.889Z,13.10
2019-05-19T02:55:28.871Z,13.40
2019-05-19T02:56:28.845Z,13.50
2019-05-19T02:57:28.847Z,13.10
2019-05-19T02:58:28.949Z,14.00
2019-05-19T02:59:28.840Z,14.10
2019-05-19T03:00:28.812Z,14.10
2019-05-19T03:01:28.790Z,14.70
2019-05-19T03:02:28.789Z,14.70
2019-05-19T03:03:28.846Z,13.70
2019-05-19T03:04:28.784Z,14.30
2019-05-19T03:05:28.760Z,14.00
2019-05-19T03:06:28.743Z,14.80
2019-05-19T03:07:28.730Z,14.10
2019-05-19T03:08:28.740Z,15.00
2019-05-19T03:09:28.755Z,15.20
2019-05-19T03:10:28.720Z,15.30
2019-05-19T03:11:28.697Z,15.40
2019-05-19T03:12:28.699Z,14.50
2019-05-19T03:13:28.662Z,14.50
2019-05-19T03:14:28.650Z,14.40
2019-05-19T03:15:28.691Z,15.40
2019-05-19T03:16:28.661Z,15.40
2019-05-19T03:17:28.616Z,15.60
2019-05-19T03:18:28.603Z,16.20
2019-05-19T03:19:28.607Z,15.40
2019-05-19T03:20:28.603Z,16.70
2019-05-19T03:21:28.584Z,16.30
2019-05-19T03:22:28.677Z,15.10
2019-05-19T03:23:28.551Z,16.00
2019-05-19T03:24:28.538Z,15.20
2019-05-19T03:25:28.557Z,15.20
2019-05-19T03:26:28.553Z,15.10
2019-05-19T03:27:28.522Z,14.40
2019-05-19T03:28:28.494Z,14.70
2019-05-19T03:29:28.501Z,14.90
2019-05-19T03:30:28.511Z,14.90
2019-05-19T03:31:28.516Z,15.00
2019-05-19T03:32:28.462Z,14.80
2019-05-19T03:33:28.459Z,14.90
2019-05-19T03:34:28.426Z,15.30
2019-05-19T03:35:28.458Z,16.00
2019-05-19T03:36:28.409Z,16.20
2019-05-19T03:37:28.397Z,16.30
2019-05-19T03:38:28.398Z,16.80
2019-05-19T03:39:28.373Z,16.10
2019-05-19T03:40:28.362Z,16.20
2019-05-19T03:41:28.379Z,17.40
2019-05-19T03:42:28.346Z,15.80
2019-05-19T03:43:28.340Z,16.30
2019-05-19T03:44:28.322Z,18.00
2019-05-19T03:45:28.331Z,17.60
2019-05-19T03:46:28.314Z,17.90
2019-05-19T03:47:28.302Z,17.70
2019-05-19T03:48:28.277Z,17.80
2019-05-19T03:49:28.260Z,17.40
2019-05-19T03:50:28.275Z,18.40
2019-05-19T03:51:31.398Z,18.00
2019-05-19T03:52:28.258Z,17.90
2019-05-19T03:53:28.225Z,18.30
2019-05-19T03:54:28.209Z,17.90
2019-05-19T03:55:28.237Z,17.70
2019-05-19T03:56:28.203Z,17.00
2019-05-19T03:57:28.242Z,17.80
2019-05-19T03:58:28.191Z,18.90
2019-05-19T03:59:28.182Z,18.40
2019-05-19T04:00:28.142Z,17.60
2019-05-19T04:01:28.156Z,19.20
2019-05-19T04:02:28.148Z,19.10
2019-05-19T04:03:28.126Z,19.00
2019-05-19T04:04:28.099Z,19.40
2019-05-19T04:05:28.095Z,19.30
2019-05-19T04:06:28.083Z,17.30
2019-05-19T04:07:28.071Z,18.00
2019-05-19T04:08:28.074Z,17.40
2019-05-19T04:09:28.043Z,18.70
2019-05-19T04:10:28.046Z,18.80
2019-05-19T04:11:28.020Z,19.80
2019-05-19T04:12:28.028Z,20.80
2019-05-19T04:13:28.000Z,20.60
2019-05-19T04:14:27.988Z,21.40
2019-05-19T04:15:27.979Z,20.50
2019-05-19T04:16:27.978Z,20.50
2019-05-19T04:17:27.987Z,21.50
2019-05-19T04:18:27.948Z,21.80
2019-05-19T04:19:27.934Z,21.70
2019-05-19T04:20:27.952Z,20.40
2019-05-19T04:21:27.926Z,20.40
2019-05-19T04:22:27.925Z,21.60
2019-05-19T04:23:27.893Z,20.60
2019-05-19T04:24:27.884Z,20.80
2019-05-19T04:25:27.877Z,21.90
2019-05-19T04:26:27.861Z,22.00
2019-05-19T04:27:27.886Z,22.30
2019-05-19T04:28:27.849Z,21.80
2019-05-19T04:29:27.827Z,21.30
2019-05-19T04:30:27.811Z,21.30
2019-05-19T04:31:27.809Z,21.60
2019-05-19T04:32:27.793Z,20.90
2019-05-19T04:33:27.803Z,21.10
2019-05-19T04:34:27.776Z,21.70
2019-05-19T04:35:27.763Z,22.10
2019-05-19T04:36:27.745Z,23.60
2019-05-19T04:37:27.808Z,23.00
2019-05-19T04:38:27.747Z,23.10
2019-05-19T04:39:27.739Z,23.40
2019-05-19T04:40:27.710Z,23.00
2019-05-19T04:41:27.695Z,23.30
2019-05-19T04:42:27.690Z,23.90
2019-05-19T04:43:27.681Z,22.90
2019-05-19T04:44:27.689Z,23.30
2019-05-19T04:45:27.662Z,23.20
2019-05-19T04:46:27.652Z,23.50
2019-05-19T04:47:27.626Z,23.30
2019-05-19T04:48:27.613Z,24.80
2019-05-19T04:49:27.638Z,23.80
2019-05-19T04:50:27.599Z,22.60
2019-05-19T04:51:27.596Z,23.00
2019-05-19T04:52:27.575Z,23.90
2019-05-19T04:53:27.570Z,22.70
2019-05-19T04:54:27.575Z,22.40
2019-05-19T04:55:27.559Z,22.40
2019-05-19T04:56:27.535Z,22.10
2019-05-19T04:57:27.541Z,22.50
2019-05-19T04:58:27.503Z,21.40
2019-05-19T04:59:27.560Z,20.60
2019-05-19T05:00:27.486Z,22.40
2019-05-19T05:01:27.488Z,20.30
2019-05-19T05:02:27.464Z,21.10
2019-05-19T05:03:27.467Z,21.70
2019-05-19T05:04:29.512Z,21.20
2019-05-19T05:05:27.438Z,22.00
2019-05-19T05:06:27.440Z,21.00
2019-05-19T05:07:27.540Z,21.10
2019-05-19T05:08:30.408Z,20.20
2019-05-19T05:09:27.487Z,22.50
2019-05-19T05:10:27.419Z,21.60
2019-05-19T05:11:27.365Z,21.70
2019-05-19T05:12:27.374Z,20.70
2019-05-19T05:13:27.354Z,21.60
2019-05-19T05:14:27.343Z,21.90
2019-05-19T05:15:27.334Z,22.00
2019-05-19T05:16:27.309Z,20.70
2019-05-19T05:17:27.295Z,21.90
2019-05-19T05:18:27.286Z,21.40
2019-05-19T05:19:27.301Z,20.10
2019-05-19T05:20:27.268Z,20.50
2019-05-19T05:21:27.253Z,19.90
2019-05-19T05:22:27.246Z,20.10
2019-05-19T05:23:27.253Z,20.10
2019-05-19T05:24:28.717Z,19.90
2019-05-19T05:25:27.234Z,19.80
2019-05-19T05:26:27.209Z,20.60
2019-05-19T05:27:27.205Z,20.40
2019-05-19T05:28:27.173Z,20.20
2019-05-19T05:29:27.173Z,18.20
2019-05-19T05:30:27.175Z,20.30
2019-05-19T05:31:27.142Z,19.60
2019-05-19T05:32:27.141Z,20.20
2019-05-19T05:33:27.127Z,21.20
2019-05-19T05:34:27.114Z,20.90
2019-05-19T05:35:27.115Z,20.60
2019-05-19T05:36:27.849Z,20.20
2019-05-19T05:37:27.082Z,20.70
2019-05-19T05:38:27.068Z,22.10
2019-05-19T05:39:27.064Z,20.20
2019-05-19T05:40:27.071Z,21.00
2019-05-19T05:41:27.046Z,21.30
2019-05-19T05:42:27.039Z,20.60
2019-05-19T05:43:27.016Z,20.10
2019-05-19T05:44:27.014Z,20.70
2019-05-19T05:45:27.033Z,21.40
2019-05-19T05:46:26.982Z,22.10
2019-05-19T05:47:26.968Z,21.80
2019-05-19T05:48:26.975Z,21.60
2019-05-19T05:49:26.945Z,21.40
2019-05-19T05:50:26.952Z,23.00
2019-05-19T05:51:26.934Z,23.90
2019-05-19T05:52:37.931Z,24.80
2019-05-19T05:53:27.911Z,25.90
2019-05-19T05:54:26.893Z,25.40
2019-05-19T05:55:26.909Z,24.90
2019-05-19T05:56:26.888Z,24.50
2019-05-19T05:57:26.871Z,24.40
2019-05-19T05:58:26.873Z,25.20
2019-05-19T05:59:26.849Z,23.70
2019-05-19T06:00:26.871Z,23.70
2019-05-19T06:01:26.819Z,23.60
2019-05-19T06:02:26.807Z,24.30
2019-05-19T06:03:26.818Z,24.20
2019-05-19T06:04:26.792Z,25.00
2019-05-19T06:05:26.811Z,25.00
2019-05-19T06:06:26.802Z,24.90
2019-05-19T06:07:26.753Z,25.00
2019-05-19T06:08:26.754Z,26.20
2019-05-19T06:09:26.725Z,25.20
2019-05-19T06:10:26.730Z,25.70
2019-05-19T06:11:26.712Z,24.40
2019-05-19T06:12:26.691Z,25.10
2019-05-19T06:13:26.682Z,24.90
2019-05-19T06:14:26.685Z,24.70
2019-05-19T06:15:27.012Z,23.10
2019-05-19T06:16:26.696Z,22.30
2019-05-19T06:17:26.710Z,23.30
2019-05-19T06:18:26.648Z,23.90
2019-05-19T06:19:26.624Z,24.80
2019-05-19T06:20:26.620Z,24.90
2019-05-19T06:21:26.608Z,26.30
2019-05-19T06:22:26.583Z,25.30
2019-05-19T06:23:26.578Z,25.10
2019-05-19T06:24:26.574Z,23.00
2019-05-19T06:25:26.564Z,24.20
2019-05-19T06:26:26.561Z,23.70
2019-05-19T06:27:26.549Z,23.10
2019-05-19T06:28:26.537Z,23.00
2019-05-19T06:29:26.651Z,22.80
2019-05-19T06:30:26.498Z,26.50
2019-05-19T06:31:26.507Z,24.90
2019-05-19T06:32:26.480Z,26.00
2019-05-19T06:33:26.469Z,25.70
2019-05-19T06:34:26.462Z,24.50
2019-05-19T06:35:26.446Z,24.10
2019-05-19T06:36:26.480Z,23.70
2019-05-19T06:37:26.457Z,23.40
2019-05-19T06:38:26.413Z,23.90
2019-05-19T06:39:26.416Z,25.10
2019-05-19T06:40:26.391Z,23.70
2019-05-19T06:41:26.410Z,24.40
2019-05-19T06:42:26.385Z,23.70
2019-05-19T06:43:26.405Z,24.00
2019-05-19T06:44:26.360Z,24.80
2019-05-19T06:45:26.373Z,24.30
2019-05-19T06:46:26.324Z,25.70
2019-05-19T06:47:26.331Z,25.50
2019-05-19T06:48:26.303Z,26.50
2019-05-19T06:49:26.296Z,26.70
2019-05-19T06:50:26.284Z,26.20
2019-05-19T06:51:26.277Z,26.10
2019-05-19T06:52:26.308Z,24.70
2019-05-19T06:53:26.269Z,24.20
2019-05-19T06:54:26.231Z,23.40
2019-05-19T06:55:26.227Z,24.60
2019-05-19T06:56:26.210Z,24.70
2019-05-19T06:57:26.237Z,25.90
2019-05-19T06:58:26.202Z,25.00
2019-05-19T06:59:26.179Z,24.70
2019-05-19T07:00:26.163Z,21.10
2019-05-19T07:01:26.162Z,19.40
2019-05-19T07:02:26.162Z,18.80
2019-05-19T07:03:26.136Z,18.60
2019-05-19T07:04:26.123Z,20.30
2019-05-19T07:05:26.112Z,20.20
2019-05-19T07:06:26.116Z,20.40
2019-05-19T07:07:26.111Z,20.40
2019-05-19T07:08:26.076Z,20.20
2019-05-19T07:09:26.387Z,19.20
2019-05-19T07:10:26.057Z,17.70
2019-05-19T07:11:26.052Z,18.30
2019-05-19T07:12:26.048Z,16.50
2019-05-19T07:13:26.100Z,18.40
2019-05-19T07:14:26.030Z,19.10
2019-05-19T07:15:26.002Z,18.80
2019-05-19T07:16:25.989Z,18.90
2019-05-19T07:17:26.004Z,19.30
2019-05-19T07:18:25.982Z,19.30
2019-05-19T07:19:25.954Z,19.20
2019-05-19T07:20:25.952Z,18.90
2019-05-19T07:21:25.938Z,19.90
2019-05-19T07:22:25.929Z,20.00
2019-05-19T07:23:28.133Z,20.10
2019-05-19T07:24:25.899Z,18.50
2019-05-19T07:25:25.911Z,18.20
2019-05-19T07:26:25.878Z,18.00
2019-05-19T07:27:25.868Z,18.90
2019-05-19T07:28:25.872Z,19.20
2019-05-19T07:29:25.846Z,19.20
2019-05-19T07:30:25.835Z,19.00
2019-05-19T07:31:25.824Z,19.00
2019-05-19T07:32:25.810Z,19.20
2019-05-19T07:33:25.838Z,17.90
2019-05-19T07:34:25.806Z,19.00
2019-05-19T07:35:25.805Z,19.10
2019-05-19T07:36:25.789Z,19.30
2019-05-19T07:37:25.766Z,18.70
2019-05-19T07:38:25.773Z,17.70
2019-05-19T07:39:25.767Z,18.30
2019-05-19T07:40:25.730Z,18.10
2019-05-19T07:41:25.719Z,19.10
2019-05-19T07:42:25.701Z,19.20
2019-05-19T07:43:25.689Z,19.50
2019-05-19T07:44:25.700Z,18.70
2019-05-19T07:45:25.675Z,18.50
2019-05-19T07:46:25.658Z,17.70
2019-05-19T07:47:25.649Z,17.30
2019-05-19T07:48:25.644Z,16.40
2019-05-19T07:49:25.654Z,17.50
2019-05-19T07:50:25.618Z,17.90
2019-05-19T07:51:25.609Z,15.00
2019-05-19T07:52:25.588Z,15.70
2019-05-19T07:53:25.618Z,14.10
2019-05-19T07:54:25.572Z,14.20
2019-05-19T07:55:25.562Z,13.40
2019-05-19T07:56:25.551Z,14.30
2019-05-19T07:57:25.541Z,13.80
2019-05-19T07:58:25.523Z,14.20
2019-05-19T07:59:25.532Z,13.70
2019-05-19T08:00:25.525Z,13.60
2019-05-19T08:01:25.496Z,12.50
2019-05-19T08:02:25.480Z,12.40
2019-05-19T08:03:25.476Z,12.40
2019-05-19T08:04:25.477Z,11.00
2019-05-19T08:05:25.465Z,10.10
2019-05-19T08:06:25.446Z,9.80
2019-05-19T08:07:25.426Z,9.40
2019-05-19T08:08:25.410Z,9.90
2019-05-19T08:09:25.423Z,9.30
2019-05-19T08:10:25.390Z,9.60
2019-05-19T08:11:25.383Z,9.60
2019-05-19T08:12:25.380Z,9.10
2019-05-19T08:13:25.355Z,10.10
2019-05-19T08:14:25.371Z,9.10
2019-05-19T08:15:25.356Z,9.60
2019-05-19T08:16:25.321Z,10.70
2019-05-19T08:17:26.004Z,9.50
2019-05-19T08:18:25.319Z,9.20
2019-05-19T08:19:25.307Z,9.20
2019-05-19T08:20:25.297Z,9.10
2019-05-19T08:21:25.278Z,9.10
2019-05-19T08:22:25.260Z,9.20
2019-05-19T08:23:25.251Z,8.00
2019-05-19T08:24:25.276Z,8.30
2019-05-19T08:25:25.225Z,8.30
2019-05-19T08:26:25.213Z,7.80
2019-05-19T08:27:25.230Z,8.30
2019-05-19T08:28:25.193Z,8.30
2019-05-19T08:29:25.209Z,8.10
2019-05-19T08:30:25.214Z,7.80
2019-05-19T08:31:25.191Z,8.90
2019-05-19T08:32:25.164Z,7.80
2019-05-19T08:33:25.206Z,8.50
2019-05-19T08:34:25.123Z,8.20
2019-05-19T08:35:25.133Z,7.80
2019-05-19T08:36:25.168Z,7.60
2019-05-19T08:37:25.097Z,7.90
2019-05-19T08:38:25.079Z,7.90
2019-05-19T08:39:25.118Z,7.80
2019-05-19T08:40:25.076Z,7.90
2019-05-19T08:41:25.052Z,7.50
2019-05-19T08:42:25.059Z,7.70
2019-05-19T08:43:25.044Z,7.80
2019-05-19T08:44:25.020Z,7.80
2019-05-19T08:45:25.030Z,7.30
2019-05-19T08:46:24.992Z,8.70
2019-05-19T08:47:24.997Z,8.00
2019-05-19T08:48:24.984Z,8.00
2019-05-19T08:49:24.978Z,7.40
2019-05-19T08:50:24.976Z,7.80
2019-05-19T08:51:24.934Z,6.90
2019-05-19T08:52:24.929Z,7.60
2019-05-19T08:53:24.919Z,8.20
2019-05-19T08:54:24.917Z,8.60
2019-05-19T08:55:24.939Z,7.80
2019-05-19T08:56:24.903Z,7.80
2019-05-19T08:57:24.921Z,8.00
2019-05-19T08:58:24.895Z,7.40
2019-05-19T08:59:24.847Z,7.80
2019-05-19T09:00:24.865Z,7.90
2019-05-19T09:01:24.829Z,8.20
2019-05-19T09:02:24.814Z,8.30
2019-05-19T09:03:24.847Z,7.30
2019-05-19T09:04:24.801Z,8.10
2019-05-19T09:05:24.790Z,7.90
2019-05-19T09:06:24.796Z,7.00
2019-05-19T09:07:24.758Z,7.50
2019-05-19T09:08:24.834Z,7.10
2019-05-19T09:09:24.743Z,7.50
2019-05-19T09:10:24.842Z,7.30
2019-05-19T09:11:24.732Z,6.70
2019-05-19T09:12:24.737Z,7.30
2019-05-19T09:13:24.696Z,7.80
2019-05-19T09:14:24.700Z,8.20
2019-05-19T09:15:24.724Z,7.90
2019-05-19T09:16:24.667Z,7.40
2019-05-19T09:17:24.673Z,7.60
2019-05-19T09:18:24.642Z,6.70
2019-05-19T09:19:24.662Z,7.50
2019-05-19T09:20:24.640Z,8.60
2019-05-19T09:21:24.634Z,7.30
2019-05-19T09:22:24.669Z,7.50
2019-05-19T09:23:24.632Z,6.80
2019-05-19T09:24:30.519Z,6.60
2019-05-19T09:25:25.582Z,6.60
2019-05-19T09:26:24.569Z,6.80
2019-05-19T09:27:24.572Z,6.90
2019-05-19T09:28:24.539Z,7.00
2019-05-19T09:29:24.522Z,7.30
2019-05-19T09:30:24.511Z,6.70
2019-05-19T09:31:24.499Z,6.90
2019-05-19T09:32:24.560Z,6.60
2019-05-19T09:33:24.476Z,6.30
2019-05-19T09:34:24.476Z,6.90
2019-05-19T09:35:24.465Z,6.50
2019-05-19T09:36:24.491Z,6.00
2019-05-19T09:37:24.454Z,6.30
2019-05-19T09:38:24.440Z,6.30
2019-05-19T09:39:24.409Z,6.60
2019-05-19T09:40:26.597Z,6.80
2019-05-19T09:41:24.402Z,6.90
2019-05-19T09:42:24.425Z,6.40
2019-05-19T09:43:24.399Z,6.50
2019-05-19T09:44:24.356Z,7.10
2019-05-19T09:45:24.351Z,6.30
2019-05-19T09:46:24.332Z,6.00
2019-05-19T09:47:24.358Z,6.30
2019-05-19T09:48:24.345Z,6.70
2019-05-19T09:49:24.304Z,6.60
2019-05-19T09:50:24.292Z,6.20
2019-05-19T09:51:24.284Z,6.30
2019-05-19T09:52:24.293Z,6.00
2019-05-19T09:53:24.328Z,5.80
2019-05-19T09:54:24.265Z,7.70
2019-05-19T09:55:24.249Z,6.90
2019-05-19T09:56:24.238Z,6.70
2019-05-19T09:57:24.267Z,6.20
2019-05-19T09:58:24.225Z,6.40
2019-05-19T09:59:24.198Z,5.70
2019-05-19T10:00:24.195Z,5.40
2019-05-19T10:01:24.182Z,6.20
2019-05-19T10:02:24.178Z,6.00
2019-05-19T10:03:24.231Z,6.50
2019-05-19T10:04:24.144Z,6.10
2019-05-19T10:05:24.167Z,6.00
2019-05-19T10:06:24.114Z,5.90
2019-05-19T10:07:24.120Z,5.70
2019-05-19T10:08:24.123Z,6.10
2019-05-19T10:09:24.088Z,5.20
2019-05-19T10:10:24.073Z,5.10
2019-05-19T10:11:24.084Z,5.70
2019-05-19T10:12:24.053Z,6.00
2019-05-19T10:13:24.074Z,5.70
2019-05-19T10:14:24.046Z,5.60
2019-05-19T10:15:24.040Z,6.10
2019-05-19T10:16:24.024Z,5.90
2019-05-19T10:17:23.999Z,5.50
2019-05-19T10:18:24.022Z,5.50
2019-05-19T10:19:23.987Z,6.40
2019-05-19T10:20:23.961Z,6.60
2019-05-19T10:21:23.966Z,6.20
2019-05-19T10:22:23.955Z,6.70
2019-05-19T10:23:23.931Z,6.10
2019-05-19T10:24:23.988Z,6.20
2019-05-19T10:25:24.091Z,6.30
2019-05-19T10:26:23.941Z,5.80
2019-05-19T10:27:23.887Z,5.60
2019-05-19T10:28:23.883Z,5.50
2019-05-19T10:29:23.895Z,6.10
2019-05-19T10:30:23.875Z,6.00
2019-05-19T10:31:23.906Z,5.60
2019-05-19T10:32:23.839Z,5.10
2019-05-19T10:33:23.832Z,5.00
2019-05-19T10:34:23.809Z,5.50
2019-05-19T10:35:23.838Z,5.60
2019-05-19T10:36:23.787Z,5.50
2019-05-19T10:37:23.786Z,5.60
2019-05-19T10:38:23.769Z,5.80
2019-05-19T10:39:23.783Z,6.10
2019-05-19T10:40:23.788Z,5.60
2019-05-19T10:41:23.742Z,5.60
2019-05-19T10:42:23.723Z,5.60
2019-05-19T10:43:23.755Z,5.70
2019-05-19T10:44:23.703Z,5.90
2019-05-19T10:45:23.742Z,6.00
2019-05-19T10:46:23.692Z,6.10
2019-05-19T10:47:23.670Z,6.10
2019-05-19T10:48:23.662Z,5.90
2019-05-19T10:49:23.643Z,5.60
2019-05-19T10:50:23.662Z,5.20
2019-05-19T10:51:23.626Z,5.50
2019-05-19T10:52:23.631Z,6.00
2019-05-19T10:53:23.617Z,5.70
2019-05-19T10:54:23.606Z,5.70
2019-05-19T10:55:35.543Z,6.00
2019-05-19T10:56:24.579Z,6.30
2019-05-19T10:57:23.556Z,5.60
2019-05-19T10:58:23.565Z,5.30
2019-05-19T10:59:23.542Z,5.40
2019-05-19T11:00:23.550Z,5.30
2019-05-19T11:01:23.529Z,5.30
2019-05-19T11:02:23.511Z,4.90
2019-05-19T11:03:23.497Z,5.20
2019-05-19T11:04:23.506Z,5.00
2019-05-19T11:05:23.501Z,4.90
2019-05-19T11:06:23.476Z,5.00
2019-05-19T11:07:23.464Z,5.60
2019-05-19T11:08:23.442Z,5.50
2019-05-19T11:09:23.429Z,5.60
2019-05-19T11:10:23.444Z,5.30
2019-05-19T11:11:23.412Z,5.30
2019-05-19T11:12:23.471Z,5.90
2019-05-19T11:13:23.389Z,5.30
2019-05-19T11:14:23.378Z,5.00
2019-05-19T11:15:23.388Z,5.60
2019-05-19T11:16:23.355Z,4.90
2019-05-19T11:17:23.352Z,5.30
2019-05-19T11:18:23.343Z,4.50
2019-05-19T11:19:23.318Z,5.10
2019-05-19T11:20:23.325Z,4.80
2019-05-19T11:21:23.376Z,5.00
2019-05-19T11:22:23.328Z,5.00
2019-05-19T11:23:23.276Z,4.90
2019-05-19T11:24:23.295Z,5.10
2019-05-19T11:25:33.540Z,5.00
2019-05-19T11:26:24.269Z,5.10
2019-05-19T11:27:23.241Z,4.90
2019-05-19T11:28:23.273Z,6.00
2019-05-19T11:29:23.228Z,5.60
2019-05-19T11:30:23.212Z,5.20
2019-05-19T11:31:23.217Z,5.10
2019-05-19T11:32:23.177Z,5.20
2019-05-19T11:33:23.176Z,5.00
2019-05-19T11:34:23.155Z,5.00
2019-05-19T11:35:23.150Z,5.10
2019-05-19T11:36:23.136Z,5.00
2019-05-19T11:37:23.158Z,5.10
2019-05-19T11:38:23.109Z,5.20
2019-05-19T11:39:23.133Z,4.40
2019-05-19T11:40:23.096Z,4.40
2019-05-19T11:41:23.119Z,4.90
2019-05-19T11:42:23.075Z,4.70
2019-05-19T11:43:23.136Z,4.50
2019-05-19T11:44:23.046Z,4.70
2019-05-19T11:45:23.060Z,4.80
2019-05-19T11:46:23.031Z,4.70
2019-05-19T11:47:23.046Z,4.60
2019-05-19T11:48:23.015Z,4.90
2019-05-19T11:49:22.994Z,4.90
2019-05-19T11:50:22.991Z,4.70
2019-05-19T11:51:22.974Z,4.70
2019-05-19T11:52:22.981Z,5.00
2019-05-19T11:53:22.967Z,5.00
2019-05-19T11:54:22.954Z,4.80
2019-05-19T11:55:22.933Z,5.30
2019-05-19T11:56:22.921Z,5.00
2019-05-19T11:57:22.932Z,4.90
2019-05-19T11:58:22.905Z,4.80
2019-05-19T11:59:22.894Z,5.20
2019-05-19T12:00:22.879Z,4.50
2019-05-19T12:01:22.875Z,4.60
2019-05-19T12:02:22.872Z,4.40
2019-05-19T12:03:22.848Z,4.30
2019-05-19T12:04:22.828Z,4.00
2019-05-19T12:05:22.903Z,4.60
2019-05-19T12:06:37.626Z,4.40
2019-05-19T12:07:23.838Z,4.00
2019-05-19T12:08:22.809Z,4.50
2019-05-19T12:09:22.795Z,4.30
2019-05-19T12:10:22.809Z,4.20
2019-05-19T12:11:22.775Z,4.30
2019-05-19T12:12:22.752Z,4.80
2019-05-19T12:13:22.760Z,4.90
2019-05-19T12:14:22.798Z,4.60
2019-05-19T12:15:22.721Z,4.30
2019-05-19T12:16:22.714Z,4.20
2019-05-19T12:17:22.708Z,4.30
2019-05-19T12:18:22.696Z,4.40
2019-05-19T12:19:22.673Z,4.20
2019-05-19T12:20:22.659Z,4.30
2019-05-19T12:21:22.664Z,4.20
2019-05-19T12:22:22.654Z,4.20
2019-05-19T12:23:22.649Z,4.60
2019-05-19T12:24:22.628Z,4.40
2019-05-19T12:25:22.602Z,4.30
2019-05-19T12:26:23.795Z,4.30
2019-05-19T12:27:22.585Z,4.30
2019-05-19T12:28:22.607Z,4.40
2019-05-19T12:29:22.572Z,4.20
2019-05-19T12:30:22.563Z,4.40
2019-05-19T12:31:22.578Z,4.60
2019-05-19T12:32:22.534Z,4.20
2019-05-19T12:33:22.556Z,4.40
2019-05-19T12:34:22.517Z,4.40
2019-05-19T12:35:22.502Z,4.60
2019-05-19T12:36:22.494Z,4.50
2019-05-19T12:37:22.539Z,4.10
2019-05-19T12:38:22.492Z,4.30
2019-05-19T12:39:22.481Z,4.30
2019-05-19T12:40:22.866Z,4.10
2019-05-19T12:41:22.439Z,4.30
2019-05-19T12:42:22.424Z,4.20
2019-05-19T12:43:22.460Z,4.10
2019-05-19T12:44:22.402Z,4.10
2019-05-19T12:45:22.409Z,4.10
2019-05-19T12:46:22.402Z,4.20
2019-05-19T12:47:22.383Z,4.00
2019-05-19T12:48:22.413Z,4.00
2019-05-19T12:49:22.362Z,4.10
2019-05-19T12:50:22.350Z,4.10
2019-05-19T12:51:22.351Z,3.90
2019-05-19T12:52:22.349Z,3.90
2019-05-19T12:53:22.310Z,4.50
2019-05-19T12:54:22.337Z,4.40
2019-05-19T12:55:22.298Z,4.20
2019-05-19T12:56:22.271Z,4.50
2019-05-19T12:57:22.258Z,4.30
2019-05-19T12:58:22.253Z,4.20
2019-05-19T12:59:22.289Z,4.50
2019-05-19T13:00:22.231Z,4.70
2019-05-19T13:01:22.224Z,4.20
2019-05-19T13:02:22.225Z,4.10
2019-05-19T13:03:22.214Z,4.30
2019-05-19T13:04:22.249Z,3.90